Time;durP1;ratioP1;P1;durP2;ratioP2;P2;SDS_P1;SDS_P2;PMS_P1;PMS_P2;Temp;Humidity;BMP_temperature;BMP_pressure;BME280_temperature;BME280_humidity;BME280_pressure;Samples;Min_cycle;Max_cycle;Signal;HPM_P1;HPM_P2
2022/08/23 00:00:22;;;;;;;9.93;6.30;;;;;15.10;96323.00;;;;8297915;28;20245;-76
2022/08/23 00:04:31;;;;;;;12.23;6.47;;;;;15.00;96321.00;;;;8296872;28;20229;-76
2022/08/23 00:08:39;;;;;;;9.68;7.05;;;;;14.90;96322.00;;;;8297055;28;20249;-75
2022/08/23 00:13:11;;;;;;;10.38;6.68;;;;;14.80;96324.00;;;;8296956;28;20233;-76
2022/08/23 00:17:16;;;;;;;10.60;6.05;;;;;14.70;96329.00;;;;8296677;28;20740;-76
2022/08/23 00:21:37;;;;;;;10.02;6.15;;;;;14.70;96323.00;;;;8297267;28;20228;-77
2022/08/23 00:25:42;;;;;;;10.02;7.00;;;;;14.60;96329.00;;;;8296829;28;20320;-77
2022/08/23 00:29:48;;;;;;;10.25;6.53;;;;;14.40;96321.00;;;;8291105;28;20489;-75
2022/08/23 00:33:51;;;;;;;8.32;6.30;;;;;14.30;96330.00;;;;8297629;28;20586;-76
2022/08/23 00:37:56;;;;;;;10.82;7.53;;;;;14.30;96322.00;;;;8296409;28;20235;-75
2022/08/23 00:51:23;;;;;;;10.82;6.30;;;;;14.10;96315.00;;;;8296047;28;20228;-74
2022/08/23 00:55:27;;;;;;;13.32;6.20;;;;;14.20;96314.00;;;;8296002;28;20307;-76
2022/08/23 01:00:04;;;;;;;6.38;5.60;;;;;14.20;96310.00;;;;8296859;28;20322;-76
2022/08/23 01:04:08;;;;;;;8.35;6.00;;;;;14.10;96313.00;;;;8296122;28;20596;-75
2022/08/23 01:08:11;;;;;;;16.13;6.25;;;;;14.00;96322.00;;;;8295727;28;20213;-75
2022/08/23 01:12:52;;;;;;;9.07;6.43;;;;;13.90;96326.00;;;;8294847;28;20303;-74
2022/08/23 01:17:02;;;;;;;8.57;6.47;;;;;13.70;96330.00;;;;8295900;28;20241;-76
2022/08/23 01:21:12;;;;;;;7.45;6.70;;;;;13.70;96315.00;;;;8295666;28;20653;-76
2022/08/23 01:25:41;;;;;;;8.18;5.78;;;;;13.70;96314.00;;;;8294981;28;20232;-76
2022/08/23 01:29:44;;;;;;;15.25;6.18;;;;;13.60;96310.00;;;;8295474;28;20220;-77
2022/08/23 01:33:54;;;;;;;7.10;5.40;;;;;13.50;96316.00;;;;8295299;28;20311;-76
2022/08/23 01:38:25;;;;;;;8.07;6.72;;;;;13.50;96319.00;;;;8295178;28;20238;-76
2022/08/23 01:42:38;;;;;;;8.75;6.03;;;;;13.50;96323.00;;;;8296116;28;20243;-76
2022/08/23 01:46:44;;;;;;;8.32;6.10;;;;;13.40;96318.00;;;;8294975;28;20218;-76
2022/08/23 01:50:48;;;;;;;8.75;6.70;;;;;13.30;96338.00;;;;8295671;28;20237;-75
2022/08/23 01:55:22;;;;;;;12.65;7.30;;;;;13.30;96324.00;;;;8294956;28;20284;-77
2022/08/23 01:59:26;;;;;;;11.27;7.45;;;;;13.30;96326.00;;;;8294769;28;20312;-76
2022/08/23 02:03:30;;;;;;;7.28;6.05;;;;;13.30;96322.00;;;;8294936;28;20218;-76
2022/08/23 02:07:33;;;;;;;10.98;6.70;;;;;13.20;96319.00;;;;8295650;28;20672;-76
2022/08/23 02:12:10;;;;;;;9.07;6.97;;;;;13.10;96319.00;;;;8294559;28;20735;-78
2022/08/23 02:16:22;;;;;;;7.32;6.18;;;;;13.10;96321.00;;;;8294462;28;20252;-76
2022/08/23 02:20:26;;;;;;;7.70;6.65;;;;;12.90;96323.00;;;;8287761;28;20342;-77
2022/08/23 02:25:03;;;;;;;12.98;6.55;;;;;12.90;96327.00;;;;8295025;28;20556;-77
2022/08/23 02:29:07;;;;;;;9.63;6.55;;;;;12.90;96318.00;;;;8293472;28;20226;-75
2022/08/23 02:33:40;;;;;;;8.45;6.70;;;;;12.80;96319.00;;;;8294665;28;20246;-74
2022/08/23 02:37:45;;;;;;;9.43;7.00;;;;;12.80;96322.00;;;;8300193;28;20310;-73
2022/08/23 02:41:48;;;;;;;9.35;6.30;;;;;12.80;96336.00;;;;8300220;28;20228;-75
2022/08/23 02:45:52;;;;;;;14.82;7.70;;;;;12.80;96340.00;;;;8301189;28;20234;-75
2022/08/23 02:50:29;;;;;;;8.70;6.32;;;;;12.80;96342.00;;;;8300042;28;20260;-75
2022/08/23 02:54:34;;;;;;;7.88;6.35;;;;;12.80;96336.00;;;;8300076;28;20329;-75
2022/08/23 02:59:08;;;;;;;9.90;7.50;;;;;12.70;96336.00;;;;8300153;28;20235;-74
2022/08/23 03:03:11;;;;;;;9.63;6.78;;;;;12.60;96335.00;;;;8299756;28;20226;-73
2022/08/23 03:07:48;;;;;;;7.82;6.90;;;;;12.50;96332.00;;;;8299685;28;20298;-72
2022/08/23 03:11:52;;;;;;;6.75;6.07;;;;;12.50;96344.00;;;;8304478;28;20266;-73
2022/08/23 03:15:56;;;;;;;9.50;6.78;;;;;12.40;96330.00;;;;8300613;28;20314;-73
2022/08/23 03:19:59;;;;;;;10.85;7.68;;;;;12.40;96336.00;;;;8329423;28;20236;-73
2022/08/23 03:24:36;;;;;;;11.73;6.53;;;;;12.40;96339.00;;;;8331446;28;20221;-72
2022/08/23 03:28:42;;;;;;;26.83;7.75;;;;;12.40;96342.00;;;;8330943;28;21493;-73
2022/08/23 03:32:46;;;;;;;9.00;6.82;;;;;12.40;96343.00;;;;8330629;28;20245;-73
2022/08/23 03:36:51;;;;;;;9.95;6.60;;;;;12.40;96340.00;;;;8330659;28;20311;-73
2022/08/23 03:41:28;;;;;;;10.75;6.57;;;;;12.30;96340.00;;;;8330772;28;20219;-72
2022/08/23 03:45:32;;;;;;;9.70;8.20;;;;;12.30;96329.00;;;;8320210;28;20225;-73
2022/08/23 03:49:37;;;;;;;10.07;7.13;;;;;12.20;96339.00;;;;8330866;28;20663;-74
2022/08/23 03:54:11;;;;;;;10.50;7.32;;;;;12.30;96342.00;;;;8330694;28;20233;-73
2022/08/23 03:58:15;;;;;;;12.55;7.03;;;;;12.30;96342.00;;;;8329913;28;20297;-73
2022/08/23 04:02:50;;;;;;;7.38;6.68;;;;;12.20;96341.00;;;;8324752;28;20312;-72
2022/08/23 04:06:54;;;;;;;8.73;6.72;;;;;12.10;96347.00;;;;8330311;28;20221;-72
2022/08/23 04:10:57;;;;;;;10.47;7.40;;;;;12.00;96352.00;;;;8329886;28;20304;-72
2022/08/23 04:15:00;;;;;;;8.10;6.70;;;;;12.00;96352.00;;;;8329929;28;20317;-72
2022/08/23 04:19:36;;;;;;;9.68;6.72;;;;;11.90;96363.00;;;;8322736;28;20719;-72
2022/08/23 04:24:11;;;;;;;7.97;6.93;;;;;11.90;96358.00;;;;8301176;28;20612;-73
2022/08/23 04:28:45;;;;;;;9.47;7.10;;;;;11.90;96367.00;;;;8295171;28;20218;-73
2022/08/23 04:32:48;;;;;;;17.83;8.05;;;;;11.90;96362.00;;;;8296493;28;20233;-79
2022/08/23 04:37:26;;;;;;;9.77;7.27;;;;;11.90;96363.00;;;;8296514;28;20222;-78
2022/08/23 04:42:22;;;;;;;12.80;7.65;;;;;11.90;96368.00;;;;8294554;28;20305;-75
2022/08/23 04:46:38;;;;;;;8.88;7.25;;;;;11.90;96370.00;;;;8295323;28;20222;-81
2022/08/23 04:51:12;;;;;;;11.88;7.38;;;;;11.90;96371.00;;;;8296747;28;20225;-83
2022/08/23 04:55:50;;;;;;;12.32;8.52;;;;;11.90;96379.00;;;;8296121;28;20306;-86
2022/08/23 05:00:26;;;;;;;12.98;8.43;;;;;12.00;96381.00;;;;8295578;28;20215;-86
2022/08/23 05:05:02;;;;;;;16.27;8.00;;;;;12.10;96381.00;;;;8295553;28;20230;-82
2022/08/23 05:09:39;;;;;;;10.52;7.88;;;;;12.30;96384.00;;;;8296211;28;20214;-86
2022/08/23 05:14:16;;;;;;;16.67;8.93;;;;;12.50;96389.00;;;;8295435;28;20218;-81
2022/08/23 05:18:54;;;;;;;12.03;7.77;;;;;12.70;96389.00;;;;8295067;28;20221;-78
2022/08/23 05:28:12;;;;;;;10.75;8.30;;;;;12.90;96393.00;;;;8295284;28;20232;-74
2022/08/23 05:32:16;;;;;;;12.60;7.90;;;;;13.10;96386.00;;;;8295581;28;20305;-73
2022/08/23 05:36:21;;;;;;;12.07;8.73;;;;;13.30;96389.00;;;;8294670;28;20227;-71
2022/08/23 05:41:00;;;;;;;9.70;8.10;;;;;13.50;96396.00;;;;8295978;28;20310;-73
2022/08/23 05:45:08;;;;;;;11.05;8.73;;;;;13.60;96395.00;;;;8295082;28;20607;-74
2022/08/23 05:49:11;;;;;;;10.70;8.45;;;;;13.80;96400.00;;;;8318584;28;20230;-73
2022/08/23 05:53:49;;;;;;;9.98;8.55;;;;;14.00;96413.00;;;;8326480;28;20233;-73
2022/08/23 05:58:23;;;;;;;11.07;8.70;;;;;14.20;96417.00;;;;8327575;28;20293;-74
2022/08/23 06:03:00;;;;;;;13.25;8.50;;;;;14.50;96426.00;;;;8326578;28;20223;-74
2022/08/23 06:07:04;;;;;;;11.05;8.23;;;;;14.70;96429.00;;;;8326673;28;20244;-74
2022/08/23 06:11:38;;;;;;;11.27;8.20;;;;;15.00;96421.00;;;;8332051;28;20223;-74
2022/08/23 06:16:18;;;;;;;8.73;7.78;;;;;15.20;96419.00;;;;8332505;28;20661;-74
2022/08/23 06:21:00;;;;;;;8.88;7.57;;;;;15.50;96421.00;;;;8332027;28;20658;-74
2022/08/23 06:25:28;;;;;;;9.65;7.50;;;;;15.80;96420.00;;;;8330843;28;20221;-75
2022/08/23 06:30:03;;;;;;;8.60;7.40;;;;;16.10;96412.00;;;;8332526;28;20221;-76
2022/08/23 06:34:41;;;;;;;16.80;7.60;;;;;16.50;96429.00;;;;8331531;28;20230;-76
2022/08/23 06:38:46;;;;;;;9.88;8.05;;;;;16.90;96433.00;;;;8332049;28;20221;-73
2022/08/23 06:42:49;;;;;;;10.25;7.03;;;;;17.20;96436.00;;;;8333244;28;20238;-73
2022/08/23 06:47:26;;;;;;;8.07;7.05;;;;;17.60;96438.00;;;;8332602;28;20221;-73
2022/08/23 06:52:05;;;;;;;8.40;6.53;;;;;18.10;96445.00;;;;8331457;28;20558;-72
2022/08/23 06:56:40;;;;;;;8.18;6.85;;;;;18.60;96450.00;;;;8331492;28;20220;-73
2022/08/23 07:01:20;;;;;;;8.82;6.13;;;;;19.00;96461.00;;;;8331635;28;20243;-74
2022/08/23 07:06:19;;;;;;;9.52;5.60;;;;;19.60;96457.00;;;;8330698;28;20335;-73
2022/08/23 07:10:58;;;;;;;6.68;5.32;;;;;20.00;96447.00;;;;8331524;28;20300;-72
2022/08/23 07:15:32;;;;;;;6.78;5.07;;;;;20.40;96455.00;;;;8328240;28;20647;-72
2022/08/23 07:20:09;;;;;;;9.20;5.53;;;;;21.00;96470.00;;;;8329893;28;20228;-70
2022/08/23 07:29:29;;;;;;;8.10;5.00;;;;;23.30;96475.00;;;;8330870;28;20659;-72
2022/08/23 07:34:04;;;;;;;4.88;4.35;;;;;24.30;96470.00;;;;8330786;28;20221;-73
2022/08/23 07:38:41;;;;;;;6.47;4.60;;;;;24.80;96471.00;;;;8330507;28;20213;-78
2022/08/23 07:43:18;;;;;;;4.43;4.03;;;;;24.70;96479.00;;;;8326547;28;20305;-79
2022/08/23 07:47:56;;;;;;;6.88;4.25;;;;;24.30;96480.00;;;;8326807;28;20226;-77
2022/08/23 07:52:00;;;;;;;5.00;4.05;;;;;24.40;96492.00;;;;8328434;28;20287;-71
2022/08/23 07:56:05;;;;;;;7.15;3.70;;;;;25.00;96496.00;;;;8330909;28;20256;-70
2022/08/23 08:05:39;;;;;;;8.40;3.38;;;;;25.50;96498.00;;;;8296997;28;20701;-70
2022/08/23 08:10:18;;;;;;;5.68;3.38;;;;;25.80;96502.00;;;;8296896;28;20228;-70
2022/08/23 08:14:52;;;;;;;3.50;2.63;;;;;25.30;96501.00;;;;8297290;28;20218;-70
2022/08/23 08:18:57;;;;;;;6.15;3.35;;;;;25.30;96503.00;;;;8296815;28;20218;-70
2022/08/23 08:23:00;;;;;;;4.50;2.90;;;;;25.10;96503.00;;;;8296372;28;20222;-70
2022/08/23 08:27:38;;;;;;;3.20;2.85;;;;;25.40;96505.00;;;;8296042;28;20271;-70
2022/08/23 08:31:44;;;;;;;3.40;2.88;;;;;25.80;96510.00;;;;8296202;28;20237;-69
2022/08/23 08:36:33;;;;;;;4.82;2.58;;;;;26.10;96515.00;;;;8296251;28;20280;-70
2022/08/23 08:45:51;;;;;;;4.53;2.30;;;;;26.40;96509.00;;;;8295076;28;20236;-70
2022/08/23 08:50:18;;;;;;;6.28;2.50;;;;;26.70;96505.00;;;;8296016;28;20225;-69
2022/08/23 08:54:26;;;;;;;3.90;1.90;;;;;27.20;96512.00;;;;8295735;28;20248;-69
2022/08/23 08:59:00;;;;;;;4.63;3.00;;;;;27.30;96506.00;;;;8295451;28;20529;-69
2022/08/23 09:03:14;;;;;;;3.22;2.10;;;;;27.50;96512.00;;;;8295240;28;20210;-69
2022/08/23 09:07:43;;;;;;;2.33;2.20;;;;;27.60;96510.00;;;;8295477;28;20253;-69
2022/08/23 09:11:55;;;;;;;2.40;1.80;;;;;27.40;96510.00;;;;8294900;28;20607;-69
2022/08/23 09:16:29;;;;;;;1.88;1.60;;;;;27.30;96508.00;;;;8295184;28;20222;-69
2022/08/23 09:21:03;;;;;;;1.60;1.60;;;;;27.50;96503.00;;;;8294501;28;20308;-70
2022/08/23 09:25:10;;;;;;;2.05;1.73;;;;;27.80;96509.00;;;;8294828;28;20233;-69
2022/08/23 09:29:20;;;;;;;3.92;1.98;;;;;28.50;96505.00;;;;8294573;28;20682;-69
2022/08/23 09:33:48;;;;;;;3.92;1.90;;;;;29.10;96505.00;;;;8295148;28;20579;-69
2022/08/23 09:37:59;;;;;;;2.22;2.05;;;;;29.70;96511.00;;;;8293980;28;20214;-69
2022/08/23 09:42:35;;;;;;;1.63;1.60;;;;;29.40;96493.00;;;;8294130;28;20588;-70
2022/08/23 09:46:40;;;;;;;1.70;1.60;;;;;29.60;96505.00;;;;8293660;28;20715;-69
2022/08/23 09:50:53;;;;;;;1.17;1.17;;;;;29.80;96499.00;;;;8295267;28;20222;-69
2022/08/23 09:55:01;;;;;;;1.45;1.40;;;;;30.10;96492.00;;;;8294813;28;20221;-69
2022/08/23 09:59:39;;;;;;;1.23;1.20;;;;;30.10;96494.00;;;;8294066;28;20212;-70
2022/08/23 10:04:13;;;;;;;1.10;1.10;;;;;29.90;96495.00;;;;8293824;28;20242;-70
2022/08/23 10:08:23;;;;;;;2.80;1.30;;;;;29.80;96498.00;;;;8294164;28;20214;-69
2022/08/23 10:12:53;;;;;;;1.20;1.20;;;;;30.00;96491.00;;;;8293352;28;20297;-70
2022/08/23 10:17:07;;;;;;;1.20;1.10;;;;;30.40;96492.00;;;;8294351;28;20271;-69
2022/08/23 10:21:37;;;;;;;0.90;0.90;;;;;30.70;96492.00;;;;8293801;28;20218;-70
2022/08/23 10:26:12;;;;;;;1.20;1.15;;;;;31.40;96489.00;;;;8293229;28;20306;-69
2022/08/23 10:30:51;;;;;;;1.20;1.10;;;;;31.30;96488.00;;;;8292983;28;20305;-69
2022/08/23 10:35:28;;;;;;;1.00;1.00;;;;;31.60;96489.00;;;;8293354;28;20284;-70
2022/08/23 10:39:32;;;;;;;2.05;0.90;;;;;32.20;96493.00;;;;8292564;28;20229;-69
2022/08/23 10:43:43;;;;;;;1.20;0.93;;;;;31.50;96488.00;;;;8293265;28;20225;-70
2022/08/23 10:48:19;;;;;;;0.88;0.88;;;;;31.10;96478.00;;;;8293401;28;20544;-70
2022/08/23 10:52:49;;;;;;;1.02;0.90;;;;;31.10;96474.00;;;;8292666;28;20265;-69
2022/08/23 10:57:23;;;;;;;1.17;1.00;;;;;30.80;96472.00;;;;8295590;28;25310;-70
2022/08/23 11:02:00;;;;;;;1.00;1.00;;;;;30.40;96470.00;;;;8299240;28;20312;-70
2022/08/23 11:06:51;;;;;;;1.17;1.00;;;;;30.90;96476.00;;;;8297756;28;20245;-70
2022/08/23 11:11:31;;;;;;;1.50;1.00;;;;;30.80;96488.00;;;;8298851;28;20217;-69
2022/08/23 11:15:42;;;;;;;1.75;1.10;;;;;30.90;96484.00;;;;8298121;28;20241;-70
2022/08/23 11:20:14;;;;;;;0.85;0.80;;;;;31.30;96485.00;;;;8297267;28;20232;-70
2022/08/23 11:29:39;;;;;;;0.90;0.90;;;;;30.50;96475.00;;;;8297738;28;20227;-70
2022/08/23 11:33:47;;;;;;;0.93;0.93;;;;;30.70;96474.00;;;;8297897;28;20221;-70
2022/08/23 11:38:36;;;;;;;1.00;1.00;;;;;31.20;96469.00;;;;8298273;28;20253;-69
2022/08/23 11:42:52;;;;;;;1.10;1.10;;;;;31.40;96462.00;;;;8241588;28;20301;-70
2022/08/23 11:52:06;;;;;;;1.00;1.00;;;;;30.90;96470.00;;;;8264865;28;20297;-70
2022/08/23 12:01:10;;;;;;;1.23;1.17;;;;;29.50;96473.00;;;;8264610;28;20229;-71
2022/08/23 12:05:59;;;;;;;1.05;1.05;;;;;29.20;96479.00;;;;8264140;28;20233;-71
2022/08/23 12:10:05;;;;;;;1.00;1.00;;;;;28.80;96466.00;;;;8229999;28;20632;-70
2022/08/23 12:14:35;;;;;;;1.00;1.00;;;;;28.30;96473.00;;;;8264645;28;20215;-70
2022/08/23 12:18:42;;;;;;;3.53;1.20;;;;;27.90;96467.00;;;;8265136;28;20226;-70
2022/08/23 12:23:07;;;;;;;1.00;1.00;;;;;28.10;96460.00;;;;8264014;28;20234;-71
2022/08/23 12:27:26;;;;;;;1.20;1.20;;;;;28.40;96461.00;;;;8264428;28;20218;-71
2022/08/23 12:31:37;;;;;;;0.85;0.85;;;;;28.40;96463.00;;;;8264000;28;20214;-70
2022/08/23 12:36:08;;;;;;;2.25;1.05;;;;;28.10;96470.00;;;;8264147;28;20219;-70
2022/08/23 12:40:41;;;;;;;0.90;0.90;;;;;28.10;96469.00;;;;8263860;28;20219;-69
2022/08/23 12:44:59;;;;;;;0.93;0.90;;;;;28.10;96465.00;;;;8263966;28;20258;-70
2022/08/23 12:53:51;;;;;;;1.02;1.02;;;;;27.90;96462.00;;;;8296189;28;20228;-69
2022/08/23 12:58:29;;;;;;;2.05;0.82;;;;;27.90;96455.00;;;;8295476;28;20313;-69
2022/08/23 13:03:07;;;;;;;2.67;0.80;;;;;28.00;96459.00;;;;8295046;28;20222;-70
2022/08/23 13:12:41;;;;;;;0.95;0.95;;;;;28.20;96453.00;;;;8295918;28;20555;-70
2022/08/23 13:16:45;;;;;;;1.70;0.98;;;;;28.20;96457.00;;;;8296161;28;20696;-71
2022/08/23 13:21:28;;;;;;;1.00;0.98;;;;;28.10;96456.00;;;;8296188;28;20225;-70
2022/08/23 13:25:40;;;;;;;1.00;1.00;;;;;28.10;96457.00;;;;8295754;28;20230;-70
2022/08/23 13:30:29;;;;;;;1.45;1.10;;;;;28.20;96449.00;;;;8295406;28;20333;-71
2022/08/23 13:39:44;;;;;;;1.40;1.25;;;;;28.80;96445.00;;;;8294904;28;20312;-70
2022/08/23 13:44:18;;;;;;;1.98;1.08;;;;;29.40;96444.00;;;;8289995;28;20225;-71
2022/08/23 13:48:55;;;;;;;1.48;1.30;;;;;30.10;96440.00;;;;8295522;28;20241;-70
2022/08/23 13:53:29;;;;;;;6.03;1.30;;;;;30.60;96448.00;;;;8289333;28;20306;-71
2022/08/23 13:58:10;;;;;;;2.40;1.23;;;;;31.10;96442.00;;;;8294314;28;20245;-71
2022/08/23 14:02:43;;;;;;;4.03;1.10;;;;;31.20;96447.00;;;;8292995;28;20567;-71
2022/08/23 14:07:17;;;;;;;1.25;1.20;;;;;31.20;96433.00;;;;8282825;28;20636;-70
2022/08/23 14:11:55;;;;;;;1.20;1.20;;;;;31.60;96437.00;;;;8289939;28;20224;-70
2022/08/23 14:16:30;;;;;;;1.17;1.10;;;;;31.90;96442.00;;;;8294139;28;20297;-71
2022/08/23 14:20:38;;;;;;;1.30;1.10;;;;;32.20;96434.00;;;;8292810;28;20598;-72
2022/08/23 14:24:48;;;;;;;1.73;1.10;;;;;32.00;96434.00;;;;8294275;28;20596;-72
2022/08/23 14:28:53;;;;;;;1.30;1.17;;;;;31.90;96438.00;;;;8293587;28;20691;-73
2022/08/23 14:32:57;;;;;;;1.95;1.23;;;;;32.20;96435.00;;;;8299700;28;20636;-72
2022/08/23 14:37:32;;;;;;;2.25;1.20;;;;;32.20;96431.00;;;;8300389;28;20313;-73
2022/08/23 14:42:09;;;;;;;1.20;1.20;;;;;32.70;96430.00;;;;8299782;28;20272;-73
2022/08/23 14:46:12;;;;;;;1.30;1.23;;;;;32.50;96432.00;;;;8299342;28;20310;-73
2022/08/23 14:50:49;;;;;;;1.52;1.30;;;;;32.10;96430.00;;;;8296847;28;20255;-73
2022/08/23 14:55:28;;;;;;;1.20;1.20;;;;;31.80;96429.00;;;;8297360;28;20303;-73
2022/08/23 15:00:02;;;;;;;1.27;1.27;;;;;31.80;96435.00;;;;8299617;28;20218;-74
2022/08/23 15:04:40;;;;;;;1.42;1.27;;;;;31.90;96422.00;;;;8298298;28;20220;-75
2022/08/23 15:09:14;;;;;;;1.30;1.20;;;;;32.00;96421.00;;;;8298656;28;20674;-74
2022/08/23 15:13:52;;;;;;;1.17;1.17;;;;;32.00;96430.00;;;;8298506;28;20296;-74
2022/08/23 15:18:01;;;;;;;1.20;1.20;;;;;31.80;96433.00;;;;8298873;28;20236;-75
2022/08/23 15:22:32;;;;;;;1.85;1.33;;;;;31.40;96429.00;;;;8297409;28;20237;-75
2022/08/23 15:26:46;;;;;;;1.98;1.58;;;;;31.10;96439.00;;;;8297877;28;20253;-75
2022/08/23 15:30:51;;;;;;;1.15;1.15;;;;;30.80;96430.00;;;;8298196;28;20224;-75
2022/08/23 15:35:25;;;;;;;2.42;1.30;;;;;30.80;96429.00;;;;8299043;28;20779;-75
2022/08/23 15:39:29;;;;;;;1.35;1.35;;;;;31.10;96428.00;;;;8297990;28;20218;-77
2022/08/23 15:44:06;;;;;;;1.50;1.50;;;;;31.20;96426.00;;;;8292418;28;20218;-76
2022/08/23 15:48:43;;;;;;;1.70;1.58;;;;;31.30;96416.00;;;;8288560;28;20226;-78
2022/08/23 15:52:50;;;;;;;1.27;1.27;;;;;31.70;96422.00;;;;8296411;28;20218;-79
2022/08/23 15:56:54;;;;;;;1.70;1.60;;;;;31.90;96421.00;;;;8296676;28;20304;-74
2022/08/23 16:01:32;;;;;;;2.00;1.52;;;;;31.70;96427.00;;;;8296933;28;20225;-75
2022/08/23 16:06:09;;;;;;;1.88;1.52;;;;;31.50;96427.00;;;;8296516;28;20329;-76
2022/08/23 16:10:47;;;;;;;1.92;1.50;;;;;31.30;96433.00;;;;8296618;28;20222;-77
2022/08/23 16:15:21;;;;;;;2.28;1.40;;;;;31.20;96432.00;;;;8294817;28;20214;-75
2022/08/23 16:19:58;;;;;;;2.13;1.60;;;;;31.50;96426.00;;;;8295959;28;20652;-76
2022/08/23 16:24:32;;;;;;;1.52;1.42;;;;;31.70;96431.00;;;;8294216;28;20305;-77
2022/08/23 16:29:12;;;;;;;1.60;1.50;;;;;31.90;96433.00;;;;8295500;28;20647;-77
2022/08/23 16:33:18;;;;;;;1.65;1.55;;;;;31.70;96441.00;;;;8295357;28;20210;-76
2022/08/23 16:37:53;;;;;;;1.50;1.42;;;;;31.60;96435.00;;;;8295068;28;20218;-75
2022/08/23 16:42:27;;;;;;;1.70;1.60;;;;;31.80;96443.00;;;;8295697;28;20587;-76
2022/08/23 16:47:08;;;;;;;1.50;1.40;;;;;32.00;96445.00;;;;8295420;28;20650;-77
2022/08/23 16:51:39;;;;;;;2.63;1.50;;;;;32.10;96444.00;;;;8290290;28;20297;-76
2022/08/23 16:56:17;;;;;;;1.67;1.58;;;;;32.20;96450.00;;;;8282431;28;20264;-76
2022/08/23 17:00:51;;;;;;;1.40;1.40;;;;;32.10;96452.00;;;;8291252;28;20226;-76
2022/08/23 17:05:30;;;;;;;4.40;1.63;;;;;32.00;96458.00;;;;8294827;28;20329;-76
2022/08/23 17:10:04;;;;;;;1.75;1.67;;;;;31.90;96460.00;;;;8291125;28;20671;-78
2022/08/23 17:14:41;;;;;;;2.13;1.65;;;;;31.60;96469.00;;;;8294334;28;20566;-77
2022/08/23 17:19:18;;;;;;;2.00;1.90;;;;;30.80;96474.00;;;;8294509;28;20230;-78
2022/08/23 17:23:57;;;;;;;2.00;1.88;;;;;30.00;96478.00;;;;8280818;28;20783;-77
2022/08/23 17:28:31;;;;;;;2.30;2.10;;;;;29.20;96491.00;;;;8293715;28;20766;-76
2022/08/23 17:33:08;;;;;;;2.10;2.00;;;;;28.40;96492.00;;;;8294566;28;20293;-75
2022/08/23 17:37:45;;;;;;;2.03;1.92;;;;;27.80;96496.00;;;;8292666;28;20625;-78
2022/08/23 17:42:23;;;;;;;2.05;1.95;;;;;27.30;96492.00;;;;8293605;28;20309;-78
2022/08/23 17:46:57;;;;;;;4.47;2.00;;;;;26.80;96502.00;;;;8293584;28;20313;-78
2022/08/23 17:51:35;;;;;;;2.00;1.90;;;;;26.40;96498.00;;;;8294011;28;20257;-79
2022/08/23 17:55:51;;;;;;;2.22;2.13;;;;;26.00;96507.00;;;;8293430;28;20309;-79
2022/08/23 18:00:27;;;;;;;2.33;2.20;;;;;25.70;96504.00;;;;8293136;28;20222;-77
2022/08/23 18:05:07;;;;;;;3.13;2.10;;;;;25.40;96513.00;;;;8293596;28;20214;-78
2022/08/23 18:09:40;;;;;;;4.05;2.78;;;;;25.10;96517.00;;;;8300519;28;20300;-79
2022/08/23 18:14:18;;;;;;;4.63;2.38;;;;;24.80;96526.00;;;;8300073;28;20578;-80
2022/08/23 18:18:55;;;;;;;2.40;2.30;;;;;24.50;96531.00;;;;8300626;28;20308;-80
2022/08/23 18:23:34;;;;;;;3.88;2.47;;;;;24.30;96535.00;;;;8298106;28;20260;-82
2022/08/23 18:32:52;;;;;;;5.70;2.65;;;;;23.80;96539.00;;;;8298837;28;20247;-78
2022/08/23 18:37:29;;;;;;;3.45;2.50;;;;;23.60;96546.00;;;;8298867;28;20672;-80
2022/08/23 18:42:08;;;;;;;2.75;2.50;;;;;23.40;96548.00;;;;8299310;28;20632;-80
2022/08/23 18:46:42;;;;;;;3.05;2.85;;;;;23.30;96560.00;;;;8299142;28;20613;-79
2022/08/23 18:51:19;;;;;;;3.78;2.97;;;;;23.10;96560.00;;;;8298176;28;20225;-82
2022/08/23 18:55:55;;;;;;;2.80;2.60;;;;;22.80;96573.00;;;;8295639;28;20252;-81
2022/08/23 19:00:34;;;;;;;3.47;3.17;;;;;22.60;96567.00;;;;8298152;28;20241;-80
2022/08/23 19:05:08;;;;;;;3.30;3.10;;;;;22.30;96573.00;;;;8298464;28;20587;-81
2022/08/23 19:09:46;;;;;;;7.25;3.08;;;;;21.90;96579.00;;;;8296170;28;20246;-80
2022/08/23 19:14:23;;;;;;;3.38;2.97;;;;;21.70;96588.00;;;;8297997;28;20320;-80
2022/08/23 19:19:02;;;;;;;3.10;2.90;;;;;21.50;96597.00;;;;8293648;28;20293;-83
2022/08/23 19:23:37;;;;;;;5.80;3.15;;;;;21.30;96590.00;;;;8278983;28;20225;-81
2022/08/23 19:32:58;;;;;;;9.07;5.82;;;;;21.00;96597.00;;;;8297864;28;20428;-78
2022/08/23 19:37:34;;;;;;;8.27;4.75;;;;;21.00;96601.00;;;;8298252;28;20297;-78
2022/08/23 19:42:06;;;;;;;4.57;3.67;;;;;20.90;96608.00;;;;8297919;28;20268;-78
2022/08/23 19:46:15;;;;;;;3.28;3.08;;;;;20.90;96610.00;;;;8296878;28;20245;-79
2022/08/23 19:50:50;;;;;;;3.83;3.53;;;;;20.90;96616.00;;;;8293481;28;20233;-78
2022/08/23 19:55:30;;;;;;;4.55;4.15;;;;;20.80;96615.00;;;;8288748;28;20300;-77
2022/08/23 20:00:08;;;;;;;4.53;3.75;;;;;20.60;96623.00;;;;8296266;28;20236;-77
2022/08/23 20:04:42;;;;;;;3.78;3.38;;;;;20.50;96628.00;;;;8297360;28;20224;-76
2022/08/23 20:09:19;;;;;;;4.13;3.58;;;;;20.30;96628.00;;;;8296034;28;20313;-82
2022/08/23 20:14:00;;;;;;;4.50;3.60;;;;;20.20;96637.00;;;;8257510;28;20272;-78
2022/08/23 20:18:32;;;;;;;4.00;3.70;;;;;20.20;96641.00;;;;8262974;28;20220;-80
2022/08/23 20:27:42;;;;;;;5.35;3.90;;;;;19.90;96646.00;;;;8293929;28;20218;-84
2022/08/23 20:32:16;;;;;;;3.90;3.60;;;;;19.90;96646.00;;;;8295611;28;20217;-85
2022/08/23 20:36:21;;;;;;;4.45;4.07;;;;;19.90;96649.00;;;;8294966;28;20233;-83
2022/08/23 20:40:55;;;;;;;7.28;4.65;;;;;19.80;96642.00;;;;8294307;28;20256;-79
2022/08/23 20:45:32;;;;;;;4.47;4.07;;;;;19.80;96659.00;;;;8294706;28;20224;-82
2022/08/23 20:50:08;;;;;;;6.35;4.43;;;;;19.80;96659.00;;;;8295014;28;20254;-84
2022/08/23 20:54:13;;;;;;;5.10;4.53;;;;;19.80;96661.00;;;;8292267;28;20280;-81
2022/08/23 20:58:16;;;;;;;6.03;4.75;;;;;19.70;96656.00;;;;8294830;28;20304;-79
2022/08/23 21:02:19;;;;;;;7.47;4.65;;;;;19.70;96664.00;;;;8295961;28;20305;-80
2022/08/23 21:06:56;;;;;;;4.82;4.43;;;;;19.60;96665.00;;;;8295145;28;20555;-82
2022/08/23 21:11:32;;;;;;;5.47;4.60;;;;;19.50;96661.00;;;;8295186;28;20552;-83
2022/08/23 21:15:35;;;;;;;4.90;4.10;;;;;19.40;96665.00;;;;8294221;28;20301;-84
2022/08/23 21:19:39;;;;;;;4.55;4.20;;;;;19.30;96667.00;;;;8295296;28;20236;-85
2022/08/23 21:24:13;;;;;;;7.03;4.65;;;;;19.20;96670.00;;;;8295211;28;20226;-85
2022/08/23 21:28:18;;;;;;;5.15;4.57;;;;;19.20;96667.00;;;;8294641;28;20721;-82
2022/08/23 21:32:25;;;;;;;5.43;4.93;;;;;19.20;96673.00;;;;8294657;28;20257;-82
2022/08/23 21:36:28;;;;;;;7.10;4.90;;;;;19.10;96669.00;;;;8295264;28;20296;-82
2022/08/23 21:40:31;;;;;;;5.20;4.70;;;;;19.10;96672.00;;;;8294111;28;20259;-83
2022/08/23 21:45:10;;;;;;;5.25;4.75;;;;;19.10;96657.00;;;;8295633;28;20267;-83
2022/08/23 21:49:14;;;;;;;4.85;4.10;;;;;19.10;96670.00;;;;8294025;28;20226;-83
2022/08/23 21:53:18;;;;;;;5.00;4.15;;;;;19.10;96671.00;;;;8294598;28;20244;-84
2022/08/23 21:57:55;;;;;;;7.60;5.20;;;;;19.10;96665.00;;;;8294603;28;20229;-84
2022/08/23 22:01:59;;;;;;;5.03;4.63;;;;;19.10;96656.00;;;;8294629;28;20224;-83
2022/08/23 22:06:33;;;;;;;8.35;5.20;;;;;19.10;96663.00;;;;8293834;28;20226;-83
2022/08/23 22:10:37;;;;;;;5.95;4.78;;;;;19.00;96652.00;;;;8294924;28;20309;-83
2022/08/23 22:14:47;;;;;;;5.65;4.72;;;;;19.00;96660.00;;;;8283421;28;20237;-83
2022/08/23 22:19:22;;;;;;;5.75;5.22;;;;;18.90;96655.00;;;;8293598;28;20229;-84
2022/08/23 22:23:26;;;;;;;5.20;4.53;;;;;18.90;96660.00;;;;8294327;28;20252;-84
2022/08/23 22:27:49;;;;;;;5.90;4.97;;;;;18.80;96663.00;;;;8293551;28;20222;-84
2022/08/23 22:31:53;;;;;;;6.97;5.57;;;;;18.80;96657.00;;;;8261075;28;20257;-83
2022/08/23 22:36:04;;;;;;;5.55;4.80;;;;;18.80;96657.00;;;;8261456;28;20657;-83
2022/08/23 22:40:09;;;;;;;5.55;5.05;;;;;18.70;96662.00;;;;8261790;28;20310;-79
2022/08/23 22:44:43;;;;;;;5.60;4.60;;;;;18.70;96655.00;;;;8260826;28;20639;-79
2022/08/23 22:48:47;;;;;;;5.20;4.15;;;;;18.60;96662.00;;;;8261550;28;20297;-79
2022/08/23 22:52:51;;;;;;;4.68;4.25;;;;;18.40;96658.00;;;;8264515;28;20233;-79
2022/08/23 22:56:55;;;;;;;5.93;5.32;;;;;18.30;96655.00;;;;8266945;28;20248;-79
2022/08/23 23:00:58;;;;;;;6.65;5.22;;;;;18.30;96654.00;;;;8265687;28;20246;-84
2022/08/23 23:05:33;;;;;;;11.18;5.32;;;;;18.20;96647.00;;;;8256304;28;20363;-82
2022/08/23 23:09:37;;;;;;;6.38;5.50;;;;;18.20;96647.00;;;;8266002;28;20556;-82